Time;durP1;ratioP1;P1;durP2;ratioP2;P2;SDS_P1;SDS_P2;PMS_P1;PMS_P2;Temp;Humidity;BMP_temperature;BMP_pressure;BME280_temperature;BME280_humidity;BME280_pressure;Samples;Min_cycle;Max_cycle;Signal;HPM_P1;HPM_P2
2021/03/26 00:00:03;;;;;;;17.73;15.87;;;11.30;80.30;;;;;;4917115;29;21194;-86
2021/03/26 00:03:09;;;;;;;;;;;;;;;;;;;;;
2021/03/26 00:13:03;;;;;;;20.00;15.60;;;11.30;80.50;;;;;;4884949;29;20998;-85
2021/03/26 00:22:35;;;;;;;18.03;16.07;;;11.40;80.40;;;;;;4851520;29;20460;-86
2021/03/26 00:36:30;;;;;;;22.60;16.57;;;11.30;81.10;;;;;;4849200;29;20450;-86
2021/03/26 00:39:22;;;;;;;20.23;17.10;;;11.30;81.40;;;;;;4857812;29;20527;-86
2021/03/26 00:46:07;;;;;;;22.23;16.67;;;11.20;82.20;;;;;;4858638;29;20948;-86
2021/03/26 00:48:35;;;;;;;26.07;20.07;;;11.10;82.30;;;;;;4941015;23;20494;-89
2021/03/26 00:51:02;;;;;;;25.97;20.17;;;11.00;82.90;;;;;;4977294;28;20456;-90
2021/03/26 00:53:31;;;;;;;28.00;20.20;;;10.90;83.40;;;;;;4976736;28;20578;-90
2021/03/26 00:55:58;;;;;;;27.30;19.83;;;10.80;83.70;;;;;;4977275;28;20960;-90
2021/03/26 00:58:25;;;;;;;27.27;18.70;;;10.70;84.30;;;;;;4976920;28;20534;-90
2021/03/26 01:00:53;;;;;;;22.80;19.40;;;10.60;84.90;;;;;;4970562;28;20536;-90
2021/03/26 01:03:22;;;;;;;26.30;20.90;;;10.60;84.90;;;;;;4983101;28;20490;-90
2021/03/26 01:05:52;;;;;;;23.17;19.07;;;10.50;85.20;;;;;;4987345;28;20941;-90
2021/03/26 01:08:19;;;;;;;26.20;20.23;;;10.30;85.90;;;;;;4978105;28;20501;-90
2021/03/26 01:10:48;;;;;;;23.60;21.07;;;10.20;86.60;;;;;;4978996;28;20456;-91
2021/03/26 01:13:16;;;;;;;25.63;19.23;;;10.10;87.00;;;;;;4995372;28;20493;-89
2021/03/26 01:15:43;;;;;;;29.07;19.93;;;10.00;87.50;;;;;;4984053;28;20980;-91
2021/03/26 01:18:13;;;;;;;26.03;21.23;;;10.00;88.00;;;;;;4967471;28;20465;-89
2021/03/26 01:20:40;;;;;;;23.47;20.80;;;10.00;88.60;;;;;;4973660;28;20464;-90
2021/03/26 01:23:08;;;;;;;24.93;21.63;;;10.00;89.10;;;;;;4981065;28;20539;-89
2021/03/26 01:25:36;;;;;;;22.97;20.40;;;10.00;89.20;;;;;;4981570;28;20456;-90
2021/03/26 01:28:04;;;;;;;22.83;19.30;;;10.00;89.10;;;;;;4979752;28;20456;-90
2021/03/26 01:30:31;;;;;;;29.03;20.60;;;10.00;89.10;;;;;;4978882;28;20471;-89
2021/03/26 01:32:59;;;;;;;21.93;19.40;;;9.90;90.30;;;;;;4963243;28;20526;-90
2021/03/26 01:35:26;;;;;;;26.30;21.97;;;9.90;90.50;;;;;;4985149;28;20472;-90
2021/03/26 01:37:53;;;;;;;25.63;21.50;;;9.90;90.50;;;;;;4998556;28;20424;-91
2021/03/26 01:40:23;;;;;;;23.53;20.20;;;9.90;90.50;;;;;;4982784;28;20459;-90
2021/03/26 01:42:50;;;;;;;24.50;20.97;;;9.90;90.50;;;;;;4994991;28;20424;-91
2021/03/26 01:45:20;;;;;;;29.73;19.50;;;9.90;90.50;;;;;;4980909;28;20510;-91
2021/03/26 01:47:51;;;;;;;24.53;21.47;;;10.00;90.00;;;;;;4972442;28;20460;-90
2021/03/26 01:50:20;;;;;;;20.63;18.40;;;9.90;90.60;;;;;;4958652;29;20448;-91
2021/03/26 01:52:47;;;;;;;23.13;20.00;;;9.90;90.70;;;;;;4957705;29;20485;-90
2021/03/26 01:55:21;;;;;;;26.50;20.07;;;9.90;90.70;;;;;;4957312;29;20437;-90
2021/03/26 01:57:48;;;;;;;29.60;22.60;;;9.90;90.60;;;;;;4958066;29;20433;-90
2021/03/26 02:00:23;;;;;;;26.00;20.50;;;9.80;90.80;;;;;;4961841;29;20451;-91
2021/03/26 02:02:49;;;;;;;29.73;21.77;;;9.60;91.10;;;;;;4979137;29;20605;-90
2021/03/26 02:05:22;;;;;;;22.47;19.97;;;9.60;91.30;;;;;;4979829;28;20437;-91
2021/03/26 02:07:49;;;;;;;28.33;20.97;;;9.50;91.50;;;;;;4979871;28;20425;-92
2021/03/26 02:10:18;;;;;;;25.90;21.43;;;9.40;91.70;;;;;;4979879;28;20441;-91
2021/03/26 02:12:47;;;;;;;28.50;21.90;;;9.30;92.10;;;;;;4979638;28;20473;-91
2021/03/26 02:15:17;;;;;;;24.17;19.83;;;9.30;92.30;;;;;;4977581;28;20469;-89
2021/03/26 02:17:44;;;;;;;23.23;19.47;;;9.20;92.40;;;;;;4971326;29;20456;-89
2021/03/26 02:20:22;;;;;;;24.87;19.67;;;9.20;92.80;;;;;;4964147;28;21048;-91
2021/03/26 02:22:49;;;;;;;24.37;19.40;;;9.20;93.00;;;;;;4980431;28;20504;-91
2021/03/26 02:25:22;;;;;;;26.77;20.03;;;9.20;92.90;;;;;;4978005;28;20451;-90
2021/03/26 02:27:48;;;;;;;20.90;18.60;;;9.20;92.90;;;;;;4979023;28;20432;-88
2021/03/26 02:30:22;;;;;;;23.13;18.83;;;9.20;93.00;;;;;;4978313;28;20432;-89
2021/03/26 02:32:49;;;;;;;24.60;22.00;;;9.30;93.00;;;;;;4979938;28;20567;-89
2021/03/26 02:35:23;;;;;;;25.70;21.90;;;9.40;92.90;;;;;;4986432;28;20438;-90
2021/03/26 02:37:52;;;;;;;25.20;22.47;;;9.30;92.50;;;;;;4988851;28;20495;-90
2021/03/26 02:40:29;;;;;;;22.80;20.03;;;9.30;92.90;;;;;;4980627;28;20464;-90
2021/03/26 02:43:04;;;;;;;25.07;22.10;;;9.30;92.90;;;;;;4979778;28;20459;-90
2021/03/26 02:45:40;;;;;;;24.33;19.83;;;9.30;92.90;;;;;;4983312;28;20482;-90
2021/03/26 02:48:13;;;;;;;24.70;20.63;;;9.10;93.10;;;;;;4980931;28;20462;-88
2021/03/26 02:50:52;;;;;;;24.30;20.57;;;9.10;93.30;;;;;;4992649;28;20440;-88
2021/03/26 02:53:28;;;;;;;23.03;20.63;;;9.10;93.30;;;;;;4976966;28;20490;-87
2021/03/26 02:56:02;;;;;;;26.07;21.50;;;9.00;93.70;;;;;;4986230;28;20459;-84
2021/03/26 02:58:32;;;;;;;28.80;21.63;;;8.80;94.10;;;;;;4985924;28;20472;-87
2021/03/26 03:01:03;;;;;;;27.07;21.17;;;8.70;94.70;;;;;;4985864;28;20462;-82
2021/03/26 03:03:33;;;;;;;26.30;21.17;;;8.60;95.10;;;;;;4981655;28;20494;-85
2021/03/26 03:06:04;;;;;;;25.90;20.33;;;8.50;95.30;;;;;;4970880;28;20573;-84
2021/03/26 03:08:34;;;;;;;25.73;22.67;;;8.60;95.80;;;;;;4979139;28;20463;-89
2021/03/26 03:11:07;;;;;;;31.67;23.70;;;8.60;95.70;;;;;;4986632;28;20452;-89
2021/03/26 03:13:37;;;;;;;30.13;21.57;;;8.50;95.70;;;;;;4991265;28;20479;-90
2021/03/26 03:16:12;;;;;;;29.70;23.57;;;8.60;95.60;;;;;;4981137;28;20447;-90
2021/03/26 03:18:42;;;;;;;25.67;20.87;;;8.50;95.70;;;;;;4979102;28;20480;-90
2021/03/26 03:21:16;;;;;;;30.20;22.40;;;8.40;96.30;;;;;;4979167;28;20463;-90
2021/03/26 03:23:47;;;;;;;30.47;23.40;;;8.30;96.50;;;;;;4978192;28;20463;-90
2021/03/26 03:26:22;;;;;;;27.20;21.47;;;8.20;96.80;;;;;;4970988;28;20444;-90
2021/03/26 03:28:55;;;;;;;24.47;21.63;;;8.20;97.10;;;;;;4976715;28;20895;-90
2021/03/26 03:31:30;;;;;;;28.83;21.63;;;8.10;97.10;;;;;;4979880;28;20464;-90
2021/03/26 03:34:06;;;;;;;24.93;21.43;;;8.00;97.40;;;;;;4981671;28;21015;-90
2021/03/26 03:36:43;;;;;;;27.47;22.57;;;8.00;98.00;;;;;;4980802;28;20535;-90
2021/03/26 03:39:15;;;;;;;26.50;22.70;;;8.10;97.80;;;;;;4996324;28;20467;-90
2021/03/26 03:45:16;;;;;;;23.97;21.33;;;8.00;98.10;;;;;;4984794;28;20447;-89
2021/03/26 03:47:51;;;;;;;32.37;21.03;;;8.00;98.20;;;;;;4965383;28;20457;-90
2021/03/26 03:50:31;;;;;;;26.93;21.33;;;8.00;98.40;;;;;;4970232;29;20464;-90
2021/03/26 03:53:04;;;;;;;28.23;21.87;;;7.90;98.50;;;;;;4968946;28;20483;-90
2021/03/26 03:55:36;;;;;;;24.83;22.10;;;7.90;98.80;;;;;;4972744;29;20468;-90
2021/03/26 03:58:08;;;;;;;27.97;21.73;;;8.00;98.70;;;;;;4981585;28;20437;-90
2021/03/26 04:00:40;;;;;;;28.30;21.80;;;7.90;98.80;;;;;;4967881;29;20457;-90
2021/03/26 04:03:12;;;;;;;27.93;22.47;;;7.80;99.00;;;;;;4961678;29;20480;-90
2021/03/26 04:05:43;;;;;;;23.47;21.00;;;7.90;99.00;;;;;;4958566;29;20464;-90
2021/03/26 04:08:15;;;;;;;27.17;22.03;;;7.90;99.10;;;;;;4958638;29;20465;-90
2021/03/26 04:10:45;;;;;;;25.83;21.77;;;7.90;99.00;;;;;;4958589;29;20421;-90
2021/03/26 04:13:18;;;;;;;24.40;20.97;;;7.90;98.90;;;;;;4957805;29;20540;-90
2021/03/26 04:15:54;;;;;;;25.77;20.67;;;7.90;98.90;;;;;;4957737;29;20476;-90
2021/03/26 04:18:24;;;;;;;26.43;21.07;;;7.90;98.70;;;;;;4958997;29;20517;-90
2021/03/26 04:20:55;;;;;;;22.30;19.20;;;8.00;98.90;;;;;;4961785;29;20440;-90
2021/03/26 04:23:25;;;;;;;22.17;19.83;;;8.00;98.80;;;;;;4979726;28;20564;-91
2021/03/26 04:26:02;;;;;;;32.83;21.07;;;7.90;98.80;;;;;;4963934;29;20436;-89
2021/03/26 04:28:33;;;;;;;27.40;22.50;;;7.90;98.80;;;;;;4960976;29;20966;-90
2021/03/26 04:31:04;;;;;;;23.47;20.93;;;7.90;98.90;;;;;;4962201;29;20429;-90
2021/03/26 04:33:31;;;;;;;28.23;21.67;;;7.90;99.00;;;;;;4962224;29;20484;-89
2021/03/26 04:36:01;;;;;;;27.63;22.03;;;7.80;99.10;;;;;;4960893;29;20456;-90
2021/03/26 04:38:34;;;;;;;28.30;24.30;;;7.80;99.20;;;;;;4959500;29;20885;-90
2021/03/26 04:41:05;;;;;;;29.77;22.37;;;7.90;99.10;;;;;;4959558;29;20536;-90
2021/03/26 04:43:36;;;;;;;24.23;19.43;;;7.80;99.20;;;;;;4968709;28;20445;-90
2021/03/26 04:46:09;;;;;;;24.17;21.30;;;7.70;99.20;;;;;;4960562;29;20468;-90
2021/03/26 04:48:40;;;;;;;25.40;20.83;;;7.60;99.50;;;;;;4959499;29;20480;-90
2021/03/26 04:51:14;;;;;;;31.13;21.53;;;7.60;99.80;;;;;;4961934;29;20524;-90
2021/03/26 04:53:46;;;;;;;28.27;21.20;;;7.70;99.90;;;;;;4964356;29;20480;-90
2021/03/26 04:56:20;;;;;;;31.20;22.67;;;7.70;99.60;;;;;;4959554;29;20952;-89
2021/03/26 04:58:51;;;;;;;28.30;21.97;;;7.90;99.60;;;;;;4957364;28;20479;-89
2021/03/26 05:01:19;;;;;;;28.07;22.07;;;7.90;99.40;;;;;;4958524;29;20950;-90
2021/03/26 05:03:49;;;;;;;26.93;20.87;;;7.80;99.40;;;;;;4973180;28;20457;-89
2021/03/26 05:06:19;;;;;;;28.20;21.93;;;7.90;99.20;;;;;;4962694;29;20453;-89
2021/03/26 05:08:52;;;;;;;27.77;22.27;;;7.90;99.20;;;;;;4960429;29;20476;-89
2021/03/26 05:11:21;;;;;;;28.87;21.83;;;7.90;99.20;;;;;;4958774;29;20919;-90
2021/03/26 05:13:50;;;;;;;26.60;22.10;;;7.80;99.20;;;;;;4961269;29;20488;-89
2021/03/26 05:16:24;;;;;;;28.23;22.37;;;7.80;99.40;;;;;;4973571;28;20460;-90
2021/03/26 05:18:56;;;;;;;26.37;20.07;;;7.70;99.60;;;;;;4958686;29;20453;-89
2021/03/26 05:21:32;;;;;;;27.27;22.67;;;7.70;99.70;;;;;;4959612;29;20461;-89
2021/03/26 05:24:03;;;;;;;25.63;22.50;;;7.80;99.70;;;;;;4959636;29;20448;-89
2021/03/26 05:26:34;;;;;;;22.60;19.73;;;7.80;99.60;;;;;;4959192;29;20445;-89
2021/03/26 05:29:00;;;;;;;32.60;23.13;;;7.70;99.50;;;;;;4957633;29;20456;-90
2021/03/26 05:31:38;;;;;;;29.77;22.33;;;7.70;99.60;;;;;;4959778;29;20460;-90
2021/03/26 05:34:10;;;;;;;29.40;21.07;;;7.70;99.50;;;;;;4967019;29;20539;-90
2021/03/26 05:36:41;;;;;;;31.63;22.30;;;7.70;99.70;;;;;;4976384;28;20418;-90
2021/03/26 05:39:11;;;;;;;29.27;22.77;;;7.70;99.70;;;;;;4979929;28;20475;-91
2021/03/26 05:42:05;;;;;;;32.53;22.40;;;7.70;99.80;;;;;;4978019;28;20429;-90
2021/03/26 05:44:44;;;;;;;31.30;22.57;;;7.70;99.80;;;;;;4975593;28;20435;-90
2021/03/26 05:47:41;;;;;;;26.80;21.60;;;7.80;99.70;;;;;;4978810;28;20464;-90
2021/03/26 05:50:26;;;;;;;35.47;24.00;;;7.80;99.50;;;;;;4973333;28;20575;-91
2021/03/26 05:53:18;;;;;;;34.53;22.57;;;7.90;99.40;;;;;;4976032;28;20474;-90
2021/03/26 05:55:52;;;;;;;34.50;23.73;;;7.80;99.40;;;;;;4978102;28;20429;-90
2021/03/26 05:58:33;;;;;;;33.50;23.90;;;7.90;99.40;;;;;;4963595;29;20453;-90
2021/03/26 06:01:51;;;;;;;34.37;24.40;;;7.90;99.20;;;;;;4960567;29;20456;-90
2021/03/26 06:04:47;;;;;;;30.73;23.83;;;8.00;99.00;;;;;;4924496;29;20457;-89
2021/03/26 06:07:48;;;;;;;28.63;23.63;;;8.10;99.20;;;;;;4959326;29;20444;-90
2021/03/26 06:10:49;;;;;;;35.40;25.20;;;8.20;98.90;;;;;;4968789;28;20441;-89
2021/03/26 06:13:43;;;;;;;35.07;23.50;;;8.20;98.60;;;;;;4902257;29;20479;-89
2021/03/26 06:16:29;;;;;;;29.53;24.47;;;8.30;98.40;;;;;;4964705;28;20452;-89
2021/03/26 06:19:43;;;;;;;30.70;22.50;;;8.30;98.00;;;;;;4966611;28;20561;-90
2021/03/26 06:22:43;;;;;;;30.63;24.53;;;8.30;98.30;;;;;;4940082;29;20456;-89
2021/03/26 06:25:31;;;;;;;27.10;22.70;;;8.40;98.10;;;;;;4973710;28;20429;-90
2021/03/26 06:28:09;;;;;;;28.90;24.33;;;8.50;97.70;;;;;;4964570;28;20822;-90
2021/03/26 06:30:49;;;;;;;34.23;25.00;;;8.60;97.70;;;;;;4963381;28;20432;-89
2021/03/26 06:33:40;;;;;;;31.87;23.03;;;8.80;97.20;;;;;;4966177;29;20495;-89
2021/03/26 06:36:30;;;;;;;31.40;25.37;;;9.00;96.90;;;;;;4985501;28;20447;-89
2021/03/26 06:39:41;;;;;;;35.40;26.17;;;9.30;96.40;;;;;;4977415;28;20549;-89
2021/03/26 06:42:44;;;;;;;29.53;24.40;;;9.30;95.70;;;;;;4965757;29;20463;-89
2021/03/26 06:45:36;;;;;;;25.33;22.63;;;9.30;95.50;;;;;;4965970;28;20542;-89
2021/03/26 06:48:17;;;;;;;29.17;23.43;;;9.30;95.60;;;;;;4962209;28;20544;-90
2021/03/26 06:51:06;;;;;;;25.80;22.60;;;9.10;95.60;;;;;;5001319;23;20499;-87
2021/03/26 06:53:39;;;;;;;34.50;23.17;;;9.10;95.70;;;;;;5002195;28;20478;-85
2021/03/26 06:56:30;;;;;;;28.40;21.47;;;9.10;95.60;;;;;;5004409;28;20499;-85
2021/03/26 06:59:26;;;;;;;36.30;24.50;;;9.10;95.60;;;;;;5004034;28;20528;-85
2021/03/26 07:02:09;;;;;;;32.93;24.67;;;9.30;95.70;;;;;;5004109;28;20440;-86
2021/03/26 07:05:14;;;;;;;34.77;24.90;;;9.40;95.40;;;;;;4988285;28;20463;-86
2021/03/26 07:08:26;;;;;;;31.80;23.93;;;9.50;95.10;;;;;;5004754;28;20443;-85
2021/03/26 07:11:26;;;;;;;30.80;23.03;;;9.70;94.80;;;;;;5022940;28;20542;-85
2021/03/26 07:14:42;;;;;;;29.23;21.73;;;9.80;94.80;;;;;;5023068;28;20471;-85
2021/03/26 07:17:47;;;;;;;28.53;22.37;;;9.90;94.30;;;;;;4981649;28;20491;-85
2021/03/26 07:20:25;;;;;;;24.60;20.53;;;10.10;93.50;;;;;;5024027;28;20477;-85
2021/03/26 07:23:30;;;;;;;26.13;20.83;;;10.30;93.20;;;;;;5020573;28;20453;-85
2021/03/26 07:26:25;;;;;;;24.50;19.80;;;10.40;93.00;;;;;;5002472;28;20447;-86
2021/03/26 07:29:00;;;;;;;23.23;20.80;;;10.50;92.80;;;;;;4999871;28;20478;-86
2021/03/26 07:31:42;;;;;;;20.90;18.43;;;10.70;92.70;;;;;;5015156;28;20470;-86
2021/03/26 07:34:20;;;;;;;22.10;18.30;;;11.40;91.90;;;;;;5003264;28;20496;-86
2021/03/26 07:37:09;;;;;;;28.80;21.27;;;11.70;90.70;;;;;;4976313;28;20467;-86
2021/03/26 07:39:56;;;;;;;26.93;20.93;;;12.00;90.10;;;;;;4979257;28;20511;-85
2021/03/26 07:43:31;;;;;;;22.37;19.67;;;12.00;89.60;;;;;;4977302;28;20479;-85
2021/03/26 07:53:22;;;;;;;;;;;;;;;;;;;;;
2021/03/26 07:56:10;;;;;;;22.80;18.70;;;13.80;84.20;;;;;;4933023;28;20465;-84
2021/03/26 07:59:07;;;;;;;22.37;17.53;;;13.80;81.60;;;;;;4978610;28;20453;-85
2021/03/26 08:02:04;;;;;;;23.90;18.00;;;14.70;80.50;;;;;;4978719;28;20457;-84
2021/03/26 08:05:01;;;;;;;59.63;32.93;;;15.50;77.20;;;;;;4973298;28;20459;-85
2021/03/26 08:11:22;;;;;;;19.73;17.70;;;15.80;74.10;;;;;;4984971;28;20499;-87
2021/03/26 08:14:21;;;;;;;21.00;18.67;;;16.40;72.70;;;;;;4985054;28;20487;-85
2021/03/26 08:20:44;;;;;;;;;;;;;;;;;;;;;
2021/03/26 08:24:04;;;;;;;17.40;15.00;;;15.50;72.80;;;;;;4965964;28;20537;-86
2021/03/26 08:27:12;;;;;;;17.13;13.67;;;15.50;72.30;;;;;;4840096;29;20448;-86
2021/03/26 08:29:59;;;;;;;16.90;13.47;;;16.10;69.70;;;;;;4924554;28;20484;-86
2021/03/26 08:33:05;;;;;;;17.23;14.87;;;16.30;68.30;;;;;;4961190;29;20440;-86
2021/03/26 08:36:27;;;;;;;19.47;17.50;;;17.30;67.80;;;;;;4959432;28;20834;-85
2021/03/26 08:39:21;;;;;;;20.90;16.83;;;18.40;64.60;;;;;;4900587;29;20530;-83
2021/03/26 08:41:57;;;;;;;20.83;15.50;;;19.60;60.80;;;;;;4889979;29;20464;-86
2021/03/26 08:44:24;;;;;;;16.90;15.27;;;20.50;57.90;;;;;;4953637;28;20473;-84
2021/03/26 08:46:53;;;;;;;19.23;16.10;;;21.60;55.30;;;;;;4983817;28;20430;-83
2021/03/26 08:49:41;;;;;;;19.57;15.80;;;21.70;55.40;;;;;;4993645;28;20471;-84
2021/03/26 08:52:20;;;;;;;18.00;15.70;;;22.30;53.50;;;;;;4986438;28;20452;-83
2021/03/26 08:55:21;;;;;;;18.63;15.13;;;22.40;53.30;;;;;;4968662;28;20503;-82
2021/03/26 08:57:58;;;;;;;16.60;14.80;;;22.50;52.40;;;;;;4995543;28;20449;-83
2021/03/26 09:00:43;;;;;;;20.67;14.60;;;21.90;52.40;;;;;;4990852;28;20467;-82
2021/03/26 09:03:43;;;;;;;16.60;14.87;;;21.50;52.20;;;;;;4985349;28;20440;-83
2021/03/26 09:06:22;;;;;;;18.60;14.27;;;22.70;52.40;;;;;;4964063;28;20452;-83
2021/03/26 09:08:57;;;;;;;15.50;14.00;;;23.00;50.50;;;;;;4984106;28;20692;-83
2021/03/26 09:12:04;;;;;;;18.10;15.90;;;24.60;49.10;;;;;;4985677;28;20449;-83
2021/03/26 09:15:04;;;;;;;14.83;12.77;;;25.00;46.90;;;;;;4984679;28;20487;-83
2021/03/26 09:17:36;;;;;;;15.60;12.60;;;25.80;45.30;;;;;;4984090;28;20446;-84
2021/03/26 09:20:09;;;;;;;15.20;11.20;;;25.90;43.70;;;;;;4987509;28;20469;-84
2021/03/26 09:22:58;;;;;;;13.47;12.17;;;26.00;43.30;;;;;;4995904;28;20415;-84
2021/03/26 09:25:42;;;;;;;17.20;10.57;;;25.80;43.50;;;;;;4989528;28;20436;-84
2021/03/26 09:28:12;;;;;;;14.23;12.23;;;26.60;42.30;;;;;;4999240;28;20471;-84
2021/03/26 09:30:42;;;;;;;12.30;11.07;;;26.20;41.10;;;;;;4998514;28;20473;-83
2021/03/26 09:33:15;;;;;;;14.67;13.17;;;25.60;42.20;;;;;;4990229;28;20436;-84
2021/03/26 09:35:47;;;;;;;13.80;12.40;;;26.10;41.90;;;;;;4988759;28;20447;-83
2021/03/26 09:38:39;;;;;;;15.13;13.50;;;26.40;41.30;;;;;;4987531;28;20449;-83
2021/03/26 09:41:17;;;;;;;14.63;13.07;;;26.30;41.30;;;;;;4968919;28;20479;-83
2021/03/26 09:43:52;;;;;;;15.30;13.83;;;27.10;40.50;;;;;;4975688;28;20539;-83
2021/03/26 09:46:25;;;;;;;15.40;13.80;;;28.40;39.80;;;;;;4977092;28;20453;-84
2021/03/26 09:48:59;;;;;;;15.73;13.17;;;28.20;38.70;;;;;;4972736;28;20829;-83
2021/03/26 09:51:49;;;;;;;14.60;13.10;;;28.50;38.40;;;;;;4968871;28;20455;-83
2021/03/26 09:54:25;;;;;;;13.73;12.53;;;29.30;37.50;;;;;;4975408;28;20486;-83
2021/03/26 09:57:05;;;;;;;14.40;12.60;;;27.80;37.50;;;;;;4976624;28;20452;-84
2021/03/26 09:59:43;;;;;;;14.40;13.10;;;28.40;37.90;;;;;;4977198;28;20965;-84
2021/03/26 10:02:22;;;;;;;15.17;13.77;;;28.20;38.00;;;;;;4978329;28;20460;-85
2021/03/26 10:04:57;;;;;;;15.90;14.20;;;28.60;37.50;;;;;;4975109;28;20459;-82
2021/03/26 10:07:32;;;;;;;14.43;13.03;;;28.80;37.80;;;;;;4975509;28;20482;-85
2021/03/26 10:12:42;;;;;;;14.87;13.10;;;28.70;36.40;;;;;;4967533;28;20452;-82
2021/03/26 10:15:21;;;;;;;18.80;13.53;;;28.30;36.90;;;;;;4975197;28;20495;-82
2021/03/26 10:17:55;;;;;;;13.07;11.90;;;27.60;38.10;;;;;;4969406;28;20462;-83
2021/03/26 10:20:35;;;;;;;14.20;12.90;;;27.80;37.90;;;;;;4975762;28;20468;-83
2021/03/26 10:23:11;;;;;;;15.30;13.80;;;28.10;37.30;;;;;;4977244;28;21044;-83
2021/03/26 10:25:43;;;;;;;14.90;13.20;;;28.90;36.50;;;;;;4976494;28;20458;-83
2021/03/26 10:28:24;;;;;;;13.00;11.90;;;29.80;35.70;;;;;;4978109;28;20460;-83
2021/03/26 10:30:53;;;;;;;13.57;12.37;;;28.60;35.80;;;;;;4993835;28;20468;-83
2021/03/26 10:33:22;;;;;;;14.67;13.20;;;29.60;36.10;;;;;;4986980;28;20515;-84
2021/03/26 10:35:56;;;;;;;12.23;11.13;;;29.20;36.00;;;;;;4980559;28;20463;-84
2021/03/26 10:38:39;;;;;;;13.33;11.93;;;29.70;35.50;;;;;;4985518;28;20447;-84
2021/03/26 10:41:12;;;;;;;14.30;12.43;;;29.30;35.50;;;;;;4978332;28;20464;-84
2021/03/26 10:43:43;;;;;;;12.33;11.27;;;30.00;35.00;;;;;;4976069;28;20455;-84
2021/03/26 10:46:12;;;;;;;13.20;12.00;;;29.50;35.00;;;;;;4978252;28;20554;-84
2021/03/26 10:48:46;;;;;;;13.43;12.13;;;28.20;35.50;;;;;;4977235;28;20452;-84
2021/03/26 10:51:36;;;;;;;13.77;12.10;;;25.90;38.10;;;;;;4986981;28;20443;-84
2021/03/26 10:54:11;;;;;;;13.03;11.63;;;24.40;40.70;;;;;;4980175;28;21015;-83
2021/03/26 10:56:46;;;;;;;13.50;10.90;;;23.40;43.00;;;;;;4975690;28;20458;-83
2021/03/26 10:59:24;;;;;;;10.80;9.80;;;23.40;43.80;;;;;;4960620;29;20815;-84
2021/03/26 11:01:53;;;;;;;10.53;9.53;;;23.50;41.90;;;;;;4961829;29;20801;-83
2021/03/26 11:04:35;;;;;;;12.07;10.33;;;22.40;43.10;;;;;;4962617;28;20447;-83
2021/03/26 11:07:18;;;;;;;11.60;10.40;;;22.10;44.70;;;;;;4981199;28;20465;-84
2021/03/26 11:10:09;;;;;;;9.40;8.00;;;24.00;43.00;;;;;;4980745;28;20552;-84
2021/03/26 11:13:06;;;;;;;8.50;7.40;;;27.60;37.60;;;;;;4978907;28;20837;-85
2021/03/26 11:15:35;;;;;;;11.70;7.60;;;25.90;35.10;;;;;;4978538;28;20458;-84
2021/03/26 11:18:14;;;;;;;8.27;7.40;;;24.00;38.20;;;;;;4977363;28;20901;-84
2021/03/26 11:20:49;;;;;;;11.53;7.80;;;22.50;40.40;;;;;;4979908;28;20977;-83
2021/03/26 11:23:23;;;;;;;16.10;8.47;;;23.10;41.60;;;;;;4981504;28;20463;-84
2021/03/26 11:25:53;;;;;;;14.10;7.33;;;22.90;40.10;;;;;;4989284;28;20466;-84
2021/03/26 11:28:25;;;;;;;7.57;6.97;;;22.60;41.80;;;;;;4980902;28;20520;-84
2021/03/26 11:31:10;;;;;;;8.03;6.93;;;23.60;40.70;;;;;;4962190;29;20472;-86
2021/03/26 11:33:47;;;;;;;7.20;6.37;;;24.20;38.30;;;;;;4985163;28;20489;-83
2021/03/26 11:36:38;;;;;;;7.57;6.63;;;24.60;37.90;;;;;;4996276;28;20440;-83
2021/03/26 11:39:16;;;;;;;8.23;6.13;;;24.20;37.70;;;;;;4977674;28;20461;-83
2021/03/26 11:41:48;;;;;;;7.50;6.60;;;24.50;37.80;;;;;;4982459;28;20446;-84
2021/03/26 11:44:18;;;;;;;6.80;6.10;;;25.30;38.00;;;;;;4985123;28;20450;-84
2021/03/26 11:46:50;;;;;;;11.80;6.30;;;26.30;35.70;;;;;;5016807;23;20574;-85
2021/03/26 11:49:21;;;;;;;6.80;6.03;;;26.60;35.40;;;;;;4982481;28;20474;-85
2021/03/26 11:51:56;;;;;;;9.60;6.80;;;28.30;33.90;;;;;;4963414;29;20449;-85
2021/03/26 11:54:34;;;;;;;7.83;5.20;;;28.70;33.20;;;;;;4960402;29;20489;-85
2021/03/26 11:57:07;;;;;;;7.70;5.53;;;26.90;32.40;;;;;;4969311;28;20563;-85
2021/03/26 11:59:52;;;;;;;7.43;6.70;;;26.20;34.10;;;;;;4965199;29;20472;-84
2021/03/26 12:02:42;;;;;;;7.63;6.43;;;25.30;34.70;;;;;;4971586;28;20459;-82
2021/03/26 12:05:16;;;;;;;6.13;4.93;;;24.60;35.80;;;;;;4990648;28;20507;-82
2021/03/26 12:07:49;;;;;;;8.87;6.27;;;25.20;36.30;;;;;;4968935;28;20475;-82
2021/03/26 12:10:27;;;;;;;7.77;6.13;;;25.80;35.30;;;;;;4972338;29;20472;-83
2021/03/26 12:13:03;;;;;;;5.37;4.97;;;25.20;34.80;;;;;;4975106;29;20920;-83
2021/03/26 12:15:34;;;;;;;7.53;6.83;;;26.10;35.50;;;;;;4958817;28;20496;-83
2021/03/26 12:18:10;;;;;;;6.63;6.10;;;26.60;33.90;;;;;;4951128;29;20465;-84
2021/03/26 12:20:39;;;;;;;7.43;6.83;;;25.50;35.20;;;;;;4959069;29;20604;-87
2021/03/26 12:23:33;;;;;;;7.43;6.53;;;25.20;36.90;;;;;;4966094;28;20469;-84
2021/03/26 12:26:07;;;;;;;7.77;6.97;;;26.30;36.00;;;;;;4947236;29;20453;-83
2021/03/26 12:28:46;;;;;;;10.10;8.40;;;26.30;36.00;;;;;;4960265;28;20452;-83
2021/03/26 12:31:20;;;;;;;9.40;8.50;;;26.90;35.30;;;;;;4967772;29;20471;-83
2021/03/26 12:33:52;;;;;;;9.90;7.67;;;27.50;34.40;;;;;;4978462;28;20550;-84
2021/03/26 12:36:21;;;;;;;8.10;7.03;;;29.70;32.80;;;;;;4990868;28;20442;-84
2021/03/26 12:38:57;;;;;;;8.60;7.70;;;30.20;30.80;;;;;;4985561;28;20444;-83
2021/03/26 12:41:45;;;;;;;9.67;7.27;;;30.20;30.70;;;;;;4986377;28;20468;-83
2021/03/26 12:44:24;;;;;;;7.20;6.60;;;30.80;30.00;;;;;;4980056;28;20452;-84
2021/03/26 12:47:16;;;;;;;10.67;7.03;;;30.80;30.20;;;;;;4961155;28;20877;-84
2021/03/26 12:50:04;;;;;;;9.47;7.47;;;32.50;28.60;;;;;;5007831;23;20503;-85
2021/03/26 12:52:49;;;;;;;7.60;6.93;;;32.80;28.00;;;;;;4982806;28;20478;-85
2021/03/26 12:55:24;;;;;;;7.10;6.40;;;30.50;28.90;;;;;;4993146;28;20482;-85
2021/03/26 12:58:02;;;;;;;6.97;6.37;;;29.00;29.80;;;;;;4984937;28;20445;-85
2021/03/26 13:00:38;;;;;;;8.80;8.10;;;29.30;30.50;;;;;;4977430;28;20483;-85
2021/03/26 13:03:13;;;;;;;6.90;5.47;;;29.50;30.00;;;;;;4980474;28;20444;-87
2021/03/26 13:05:42;;;;;;;5.80;5.10;;;28.60;29.80;;;;;;4961971;28;20464;-84
2021/03/26 13:08:12;;;;;;;8.10;6.70;;;28.90;30.30;;;;;;4979195;28;20512;-85
2021/03/26 13:11:04;;;;;;;9.80;6.20;;;29.00;30.70;;;;;;4977793;28;20469;-87
2021/03/26 13:13:37;;;;;;;6.87;6.00;;;28.60;31.10;;;;;;4970971;28;20481;-87
2021/03/26 13:16:40;;;;;;;7.53;6.80;;;27.60;32.90;;;;;;4974148;28;20448;-87
2021/03/26 13:19:13;;;;;;;6.57;5.80;;;25.80;33.70;;;;;;4949804;28;20479;-87
2021/03/26 13:21:45;;;;;;;11.10;5.30;;;25.80;34.90;;;;;;4960147;28;20449;-85
2021/03/26 13:24:33;;;;;;;6.57;5.50;;;26.20;33.90;;;;;;4960042;28;20453;-86
2021/03/26 13:27:30;;;;;;;6.80;4.90;;;27.20;33.90;;;;;;4966985;28;20451;-86
2021/03/26 13:30:04;;;;;;;9.37;5.83;;;27.30;31.60;;;;;;4968887;28;20485;-86
2021/03/26 13:32:40;;;;;;;6.50;5.67;;;26.20;34.30;;;;;;4980206;28;20444;-86
2021/03/26 13:35:15;;;;;;;5.13;4.60;;;25.70;32.90;;;;;;4987878;28;20468;-87
2021/03/26 13:37:44;;;;;;;5.30;4.80;;;25.80;33.80;;;;;;4979433;28;20420;-86
2021/03/26 13:40:15;;;;;;;6.90;5.80;;;26.30;33.70;;;;;;4972831;28;20469;-87
2021/03/26 13:42:46;;;;;;;7.00;5.00;;;26.80;32.30;;;;;;4970917;28;20453;-86
2021/03/26 13:45:16;;;;;;;5.93;5.20;;;26.10;32.50;;;;;;4970066;28;20476;-86
2021/03/26 13:47:50;;;;;;;5.70;4.83;;;24.60;34.00;;;;;;4967263;28;20475;-87
2021/03/26 13:50:38;;;;;;;5.27;4.77;;;22.70;36.20;;;;;;4959510;29;20497;-87
2021/03/26 13:53:11;;;;;;;10.27;5.60;;;22.50;38.00;;;;;;4961895;28;20457;-85
2021/03/26 13:55:41;;;;;;;6.07;4.80;;;21.90;37.90;;;;;;4969174;28;20481;-85
2021/03/26 13:58:16;;;;;;;9.90;6.33;;;21.80;38.60;;;;;;4958035;28;21020;-86
2021/03/26 14:00:45;;;;;;;7.00;5.20;;;21.10;38.90;;;;;;4964804;23;20581;-84
2021/03/26 14:03:26;;;;;;;5.90;4.80;;;20.90;39.80;;;;;;4983723;28;20456;-84
2021/03/26 14:06:05;;;;;;;9.20;7.60;;;21.50;39.70;;;;;;4985137;28;20450;-84
2021/03/26 14:08:37;;;;;;;16.10;10.07;;;22.10;39.00;;;;;;4978600;28;20526;-84
2021/03/26 14:11:16;;;;;;;8.63;4.67;;;22.40;37.90;;;;;;4974557;28;20496;-84
2021/03/26 14:13:55;;;;;;;8.83;4.70;;;22.50;38.00;;;;;;4957374;29;20484;-83
2021/03/26 14:16:24;;;;;;;4.97;3.83;;;21.60;38.20;;;;;;4961979;29;20840;-83
2021/03/26 14:19:02;;;;;;;7.37;4.37;;;21.30;38.80;;;;;;4961864;29;20440;-83
2021/03/26 14:21:45;;;;;;;3.93;3.23;;;21.40;39.10;;;;;;4964197;28;20543;-83
2021/03/26 14:24:22;;;;;;;3.90;3.50;;;21.30;38.90;;;;;;4962210;29;20451;-83